Time;durP1;ratioP1;P1;durP2;ratioP2;P2;SDS_P1;SDS_P2;PMS_P1;PMS_P2;Temp;Humidity;BMP_temperature;BMP_pressure;BME280_temperature;BME280_humidity;BME280_pressure;Samples;Min_cycle;Max_cycle;Signal;HPM_P1;HPM_P2
2021/10/13 00:01:02;;;;;;;;;;;;;;;;;;2099251;28;1412;-84
2021/10/13 00:02:03;;;;;;;;;;;;;;;;;;2099877;28;1478;-84
2021/10/13 00:03:04;;;;;;;;;;;;;;;;;;2108834;28;1265;-85
2021/10/13 00:04:06;;;;;;;;;;;;;;;;;;2109457;28;1324;-83
2021/10/13 00:05:08;;;;;;;;;;;;;;;;;;2109453;28;1236;-84
2021/10/13 00:06:09;;;;;;;;;;;;;;;;;;2109717;28;1910;-85
2021/10/13 00:07:10;;;;;;;;;;;;;;;;;;2108937;28;1371;-84
2021/10/13 00:08:14;;;;;;;;;;;;;;;;;;2117791;28;1071;-84
2021/10/13 00:09:15;;;;;;;;;;;;;;;;;;2109575;28;1305;-84
2021/10/13 00:10:17;;;;;;;;;;;;;;;;;;2101157;28;1247;-84
2021/10/13 00:11:18;;;;;;;;;;;;;;;;;;2109091;28;1282;-84
2021/10/13 00:12:20;;;;;;;;;;;;;;;;;;2103183;28;1303;-84
2021/10/13 00:13:20;;;;;;;;;;;;;;;;;;2109737;28;1377;-84
2021/10/13 00:14:22;;;;;;;;;;;;;;;;;;2101091;28;1309;-84
2021/10/13 00:15:23;;;;;;;;;;;;;;;;;;2101077;28;1297;-85
2021/10/13 00:16:25;;;;;;;;;;;;;;;;;;2100518;28;1228;-84
2021/10/13 00:17:27;;;;;;;;;;;;;;;;;;2109235;28;1350;-85
2021/10/13 00:18:29;;;;;;;;;;;;;;;;;;2109274;28;1238;-85
2021/10/13 00:19:30;;;;;;;;;;;;;;;;;;2109402;28;1332;-84
2021/10/13 00:20:32;;;;;;;;;;;;;;;;;;2107171;28;1489;-85
2021/10/13 00:21:33;;;;;;;;;;;;;;;;;;2109278;28;1292;-85
2021/10/13 00:22:35;;;;;;;;;;;;;;;;;;2104345;28;1338;-85
2021/10/13 00:23:37;;;;;;;;;;;;;;;;;;2117308;28;1340;-84
2021/10/13 00:24:39;;;;;;;;;;;;;;;;;;2117601;28;1304;-85
2021/10/13 00:25:40;;;;;;;;;;;;;;;;;;2109584;28;1194;-85
2021/10/13 00:26:42;;;;;;;;;;;;;;;;;;2117634;28;1321;-85
2021/10/13 00:27:43;;;;;;;;;;;;;;;;;;2111242;28;1346;-84
2021/10/13 00:28:44;;;;;;;;;;;;;;;;;;2100802;28;1258;-84
2021/10/13 00:29:45;;;;;;;;;;;;;;;;;;2108911;28;1256;-85
2021/10/13 00:30:47;;;;;;;;;;;;;;;;;;2104238;28;1929;-84
2021/10/13 00:31:48;;;;;;;;;;;;;;;;;;2109362;28;1408;-84
2021/10/13 00:32:49;;;;;;;;;;;;;;;;;;2108424;28;1383;-84
2021/10/13 00:33:51;;;;;;;;;;;;;;;;;;2101023;28;1227;-83
2021/10/13 00:34:53;;;;;;;;;;;;;;;;;;2109313;28;799;-83
2021/10/13 00:35:53;;;;;;;;;;;;;;;;;;2117576;28;1462;-83
2021/10/13 00:36:55;;;;;;;;;;;;;;;;;;2117100;28;1182;-83
2021/10/13 00:37:56;;;;;;;;;;;;;;;;;;2109198;28;1163;-83
2021/10/13 00:38:59;;;;;;;;;;;;;;;;;;2109103;28;1427;-83
2021/10/13 00:40:00;;;;;;;;;;;;;;;;;;2108879;28;1313;-83
2021/10/13 00:41:02;;;;;;;;;;;;;;;;;;2112828;28;1484;-83
2021/10/13 00:42:03;;;;;;;;;;;;;;;;;;2109172;28;1185;-83
2021/10/13 00:43:06;;;;;;;;;;;;;;;;;;2108707;28;1345;-83
2021/10/13 00:44:07;;;;;;;;;;;;;;;;;;2109019;28;1240;-83
2021/10/13 00:45:09;;;;;;;;;;;;;;;;;;2109082;28;1327;-83
2021/10/13 00:46:09;;;;;;;;;;;;;;;;;;2116446;28;1914;-83
2021/10/13 00:47:11;;;;;;;;;;;;;;;;;;2108900;28;1246;-83
2021/10/13 00:48:12;;;;;;;;;;;;;;;;;;2117271;28;1209;-83
2021/10/13 00:49:14;;;;;;;;;;;;;;;;;;2117267;28;1377;-83
2021/10/13 00:50:15;;;;;;;;;;;;;;;;;;2108871;28;1426;-84
2021/10/13 00:51:17;;;;;;;;;;;;;;;;;;2108893;28;1206;-83
2021/10/13 00:52:18;;;;;;;;;;;;;;;;;;2100779;28;1700;-83
2021/10/13 00:53:20;;;;;;;;;;;;;;;;;;2109011;28;1328;-83
2021/10/13 00:54:23;;;;;;;;;;;;;;;;;;2108238;28;1301;-82
2021/10/13 00:55:25;;;;;;;;;;;;;;;;;;2116325;28;1344;-83
2021/10/13 00:56:26;;;;;;;;;;;;;;;;;;2100546;28;1182;-83
2021/10/13 00:57:28;;;;;;;;;;;;;;;;;;2109061;28;1368;-83
2021/10/13 00:58:29;;;;;;;;;;;;;;;;;;2100723;28;1269;-83
2021/10/13 00:59:31;;;;;;;;;;;;;;;;;;2100495;28;1356;-81
2021/10/13 01:00:32;;;;;;;;;;;;;;;;;;2100251;28;1319;-83
2021/10/13 01:01:37;;;;;;;;;;;;;;;;;;2108368;28;1498;-83
2021/10/13 01:02:41;;;;;;;;;;;;;;;;;;2100656;28;1325;-83
2021/10/13 01:03:46;;;;;;;;;;;;;;;;;;2117822;28;1212;-83
2021/10/13 01:04:55;;;;;;;;;;;;;;;;;;2116698;28;1363;-84
2021/10/13 01:06:02;;;;;;;;;;;;;;;;;;2101566;28;1971;-84
2021/10/13 01:07:11;;;;;;;;;;;;;;;;;;2101899;28;2050;-84
2021/10/13 01:08:14;;;;;;;;;;;;;;;;;;2108845;28;1288;-83
2021/10/13 01:09:19;;;;;;;;;;;;;;;;;;2108721;28;1384;-84
2021/10/13 01:10:24;;;;;;;;;;;;;;;;;;2108884;28;2094;-84
2021/10/13 01:11:31;;;;;;;;;;;;;;;;;;2100570;28;1565;-84
2021/10/13 01:12:38;;;;;;;;;;;;;;;;;;2101271;28;1222;-84
2021/10/13 01:13:48;;;;;;;;;;;;;;;;;;2100519;28;1306;-84
2021/10/13 01:14:54;;;;;;;;;;;;;;;;;;2101722;28;1529;-84
2021/10/13 01:15:59;;;;;;;;;;;;;;;;;;2101209;28;1405;-84
2021/10/13 01:17:11;;;;;;;;;;;;;;;;;;2108283;28;1250;-84
2021/10/13 01:18:14;;;;;;;;;;;;;;;;;;2101358;28;1314;-84
2021/10/13 01:19:21;;;;;;;;;;;;;;;;;;2108419;28;1317;-84
2021/10/13 01:20:29;;;;;;;;;;;;;;;;;;2093059;28;1214;-83
2021/10/13 01:21:42;;;;;;;;;;;;;;;;;;2093967;28;1333;-84
2021/10/13 01:23:00;;;;;;;;;;;;;;;;;;2101782;28;1274;-84
2021/10/13 01:24:16;;;;;;;;;;;;;;;;;;2092597;28;1215;-83
2021/10/13 01:25:21;;;;;;;;;;;;;;;;;;2102704;28;1355;-83
2021/10/13 01:26:30;;;;;;;;;;;;;;;;;;2100505;28;1914;-83
2021/10/13 01:27:56;;;;;;;;;;;;;;;;;;2110593;28;2120;-83
2021/10/13 01:29:01;;;;;;;;;;;;;;;;;;2108429;28;1418;-82
2021/10/13 01:30:04;;;;;;;;;;;;;;;;;;2101071;28;1329;-83
2021/10/13 01:31:06;;;;;;;;;;;;;;;;;;2108441;28;1206;-83
2021/10/13 01:32:13;;;;;;;;;;;;;;;;;;2098969;28;1201;-83
2021/10/13 01:33:16;;;;;;;;;;;;;;;;;;2100731;28;871;-83
2021/10/13 01:34:21;;;;;;;;;;;;;;;;;;2100190;28;1377;-83
2021/10/13 01:35:24;;;;;;;;;;;;;;;;;;2092976;28;1214;-83
2021/10/13 01:36:28;;;;;;;;;;;;;;;;;;2091924;28;1444;-83
2021/10/13 01:37:35;;;;;;;;;;;;;;;;;;2084442;28;1478;-83
2021/10/13 01:38:39;;;;;;;;;;;;;;;;;;2093496;28;1458;-83
2021/10/13 01:39:41;;;;;;;;;;;;;;;;;;2108843;28;886;-83
2021/10/13 01:40:45;;;;;;;;;;;;;;;;;;2111889;28;1377;-83
2021/10/13 01:41:46;;;;;;;;;;;;;;;;;;2117237;28;1458;-83
2021/10/13 01:42:51;;;;;;;;;;;;;;;;;;2108433;28;1576;-83
2021/10/13 01:43:53;;;;;;;;;;;;;;;;;;2109388;28;1211;-83
2021/10/13 01:44:59;;;;;;;;;;;;;;;;;;2100172;28;1317;-83
2021/10/13 01:46:02;;;;;;;;;;;;;;;;;;2109453;28;855;-83
2021/10/13 01:47:04;;;;;;;;;;;;;;;;;;2108308;28;1910;-82
2021/10/13 01:48:06;;;;;;;;;;;;;;;;;;2095937;28;1348;-83
2021/10/13 01:49:08;;;;;;;;;;;;;;;;;;2100270;28;1357;-83
2021/10/13 01:50:09;;;;;;;;;;;;;;;;;;2100478;28;1238;-83
2021/10/13 01:51:12;;;;;;;;;;;;;;;;;;2108289;28;1285;-83
2021/10/13 01:52:15;;;;;;;;;;;;;;;;;;2101612;28;1298;-83
2021/10/13 01:53:17;;;;;;;;;;;;;;;;;;2100036;28;1383;-83
2021/10/13 01:54:19;;;;;;;;;;;;;;;;;;2100169;28;1331;-83
2021/10/13 01:55:22;;;;;;;;;;;;;;;;;;2100106;28;2001;-82
2021/10/13 01:56:25;;;;;;;;;;;;;;;;;;2110429;28;1552;-83
2021/10/13 01:57:27;;;;;;;;;;;;;;;;;;2112326;28;1851;-83
2021/10/13 01:58:30;;;;;;;;;;;;;;;;;;2100029;28;1297;-83
2021/10/13 01:59:31;;;;;;;;;;;;;;;;;;2099826;28;1469;-83
2021/10/13 02:00:35;;;;;;;;;;;;;;;;;;2108223;28;1294;-83
2021/10/13 02:01:36;;;;;;;;;;;;;;;;;;2100317;28;1301;-83
2021/10/13 02:02:38;;;;;;;;;;;;;;;;;;2108284;28;1206;-83
2021/10/13 02:03:39;;;;;;;;;;;;;;;;;;2108200;28;1325;-83
2021/10/13 02:04:42;;;;;;;;;;;;;;;;;;2100055;28;1311;-83
2021/10/13 02:05:43;;;;;;;;;;;;;;;;;;2099749;28;1234;-83
2021/10/13 02:06:47;;;;;;;;;;;;;;;;;;2099877;28;1914;-83
2021/10/13 02:07:49;;;;;;;;;;;;;;;;;;2115221;28;2010;-83
2021/10/13 02:08:53;;;;;;;;;;;;;;;;;;2108288;28;1245;-83
2021/10/13 02:09:57;;;;;;;;;;;;;;;;;;2108285;28;1252;-83
2021/10/13 02:10:59;;;;;;;;;;;;;;;;;;2091696;28;1207;-83
2021/10/13 02:12:01;;;;;;;;;;;;;;;;;;2092857;28;1215;-83
2021/10/13 02:13:05;;;;;;;;;;;;;;;;;;2107899;28;1218;-83
2021/10/13 02:14:09;;;;;;;;;;;;;;;;;;2108940;28;1474;-83
2021/10/13 02:15:11;;;;;;;;;;;;;;;;;;2108124;28;1265;-83
2021/10/13 02:16:15;;;;;;;;;;;;;;;;;;2108021;28;1254;-83
2021/10/13 02:17:17;;;;;;;;;;;;;;;;;;2099593;28;1581;-83
2021/10/13 02:18:22;;;;;;;;;;;;;;;;;;2107711;28;1353;-83
2021/10/13 02:19:25;;;;;;;;;;;;;;;;;;2108330;28;1305;-83
2021/10/13 02:20:29;;;;;;;;;;;;;;;;;;2099077;28;2041;-84
2021/10/13 02:21:30;;;;;;;;;;;;;;;;;;2100617;28;1229;-84
2021/10/13 02:22:33;;;;;;;;;;;;;;;;;;2112632;28;2054;-83
2021/10/13 02:23:35;;;;;;;;;;;;;;;;;;2116475;28;1522;-84
2021/10/13 02:24:40;;;;;;;;;;;;;;;;;;2116570;28;1292;-83
2021/10/13 02:25:42;;;;;;;;;;;;;;;;;;2116714;28;799;-84
2021/10/13 02:26:45;;;;;;;;;;;;;;;;;;2114154;28;1914;-84
2021/10/13 02:27:47;;;;;;;;;;;;;;;;;;2099704;28;2134;-84
2021/10/13 02:28:52;;;;;;;;;;;;;;;;;;2099860;28;1203;-84
2021/10/13 02:29:52;;;;;;;;;;;;;;;;;;2100441;28;1212;-84
2021/10/13 02:30:55;;;;;;;;;;;;;;;;;;2103729;28;1981;-84
2021/10/13 02:31:57;;;;;;;;;;;;;;;;;;2108266;28;981;-84
2021/10/13 02:32:59;;;;;;;;;;;;;;;;;;2099646;28;1237;-84
2021/10/13 02:34:00;;;;;;;;;;;;;;;;;;2091367;28;1209;-83
2021/10/13 02:35:04;;;;;;;;;;;;;;;;;;2090844;28;1267;-83
2021/10/13 02:36:05;;;;;;;;;;;;;;;;;;2108050;28;1226;-83
2021/10/13 02:37:07;;;;;;;;;;;;;;;;;;2104553;28;1402;-82
2021/10/13 02:38:08;;;;;;;;;;;;;;;;;;2116637;28;1385;-83
2021/10/13 02:39:10;;;;;;;;;;;;;;;;;;2108097;28;1289;-83
2021/10/13 02:40:11;;;;;;;;;;;;;;;;;;2099732;28;1363;-83
2021/10/13 02:41:13;;;;;;;;;;;;;;;;;;2115562;28;2071;-85
2021/10/13 02:42:15;;;;;;;;;;;;;;;;;;2107776;28;1353;-85
2021/10/13 02:43:15;;;;;;;;;;;;;;;;;;2108281;28;1449;-85
2021/10/13 02:44:17;;;;;;;;;;;;;;;;;;2107518;28;1352;-85
2021/10/13 02:45:18;;;;;;;;;;;;;;;;;;2108073;28;1365;-84
2021/10/13 02:46:24;;;;;;;;;;;;;;;;;;2107458;28;1354;-84
2021/10/13 02:47:32;;;;;;;;;;;;;;;;;;2100446;28;1948;-84
2021/10/13 02:48:33;;;;;;;;;;;;;;;;;;2100486;28;1311;-85
2021/10/13 02:49:42;;;;;;;;;;;;;;;;;;2099885;28;1427;-85
2021/10/13 02:50:47;;;;;;;;;;;;;;;;;;2100842;28;1281;-85
2021/10/13 02:51:51;;;;;;;;;;;;;;;;;;2100238;28;1221;-84
2021/10/13 02:52:56;;;;;;;;;;;;;;;;;;2107821;28;1267;-84
2021/10/13 02:54:01;;;;;;;;;;;;;;;;;;2100206;28;1267;-84
2021/10/13 02:55:03;;;;;;;;;;;;;;;;;;2099272;28;1324;-84
2021/10/13 02:56:08;;;;;;;;;;;;;;;;;;2091866;28;1406;-84
2021/10/13 02:57:10;;;;;;;;;;;;;;;;;;2107939;28;859;-84
2021/10/13 02:58:18;;;;;;;;;;;;;;;;;;2108001;28;1266;-84
2021/10/13 02:59:23;;;;;;;;;;;;;;;;;;2108102;28;1298;-84
2021/10/13 03:00:25;;;;;;;;;;;;;;;;;;2099369;28;1334;-84
2021/10/13 03:01:28;;;;;;;;;;;;;;;;;;2099829;28;1345;-85
2021/10/13 03:02:33;;;;;;;;;;;;;;;;;;2107942;28;1413;-85
2021/10/13 03:03:36;;;;;;;;;;;;;;;;;;2111243;28;1426;-85
2021/10/13 03:04:40;;;;;;;;;;;;;;;;;;2116080;28;1174;-85
2021/10/13 03:05:42;;;;;;;;;;;;;;;;;;2116630;28;859;-85
2021/10/13 03:06:47;;;;;;;;;;;;;;;;;;2116247;28;1909;-85
2021/10/13 03:07:49;;;;;;;;;;;;;;;;;;2109110;28;1068;-84
2021/10/13 03:08:53;;;;;;;;;;;;;;;;;;2107921;28;1335;-85
2021/10/13 03:09:55;;;;;;;;;;;;;;;;;;2099556;28;1348;-84
2021/10/13 03:10:58;;;;;;;;;;;;;;;;;;2099688;28;1053;-85
2021/10/13 03:12:01;;;;;;;;;;;;;;;;;;2108229;28;1215;-84
2021/10/13 03:13:04;;;;;;;;;;;;;;;;;;2099705;28;1225;-85
2021/10/13 03:14:07;;;;;;;;;;;;;;;;;;2099775;28;1182;-85
2021/10/13 03:15:09;;;;;;;;;;;;;;;;;;2099585;28;1303;-85
2021/10/13 03:16:12;;;;;;;;;;;;;;;;;;2097914;28;1319;-85
2021/10/13 03:17:13;;;;;;;;;;;;;;;;;;2091494;28;1271;-85
2021/10/13 03:18:17;;;;;;;;;;;;;;;;;;2099286;28;1235;-85
2021/10/13 03:19:18;;;;;;;;;;;;;;;;;;2107649;28;1286;-84
2021/10/13 03:20:21;;;;;;;;;;;;;;;;;;2107039;28;1231;-84
2021/10/13 03:21:24;;;;;;;;;;;;;;;;;;2099483;28;1255;-84
2021/10/13 03:22:26;;;;;;;;;;;;;;;;;;2099902;28;1223;-84
2021/10/13 03:23:28;;;;;;;;;;;;;;;;;;2099829;28;1339;-84
2021/10/13 03:24:30;;;;;;;;;;;;;;;;;;2099507;28;1302;-84
2021/10/13 03:25:31;;;;;;;;;;;;;;;;;;2107630;28;1577;-84
2021/10/13 03:26:33;;;;;;;;;;;;;;;;;;2116406;28;1420;-84
2021/10/13 03:27:34;;;;;;;;;;;;;;;;;;2102150;28;1906;-84
2021/10/13 03:28:37;;;;;;;;;;;;;;;;;;2099054;28;1279;-84
2021/10/13 03:29:38;;;;;;;;;;;;;;;;;;2099413;28;1251;-84
2021/10/13 03:30:42;;;;;;;;;;;;;;;;;;2094069;28;2165;-83
2021/10/13 03:31:43;;;;;;;;;;;;;;;;;;2108401;28;1317;-82
2021/10/13 03:32:45;;;;;;;;;;;;;;;;;;2107723;28;1380;-83
2021/10/13 03:33:59;;;;;;;;;;;;;;;;;;2105533;28;1252;-84
2021/10/13 03:35:00;;;;;;;;;;;;;;;;;;2100493;28;1269;-83
2021/10/13 03:36:02;;;;;;;;;;;;;;;;;;2113607;28;2036;-83
2021/10/13 03:37:04;;;;;;;;;;;;;;;;;;2107095;28;1342;-83
2021/10/13 03:38:05;;;;;;;;;;;;;;;;;;2109021;28;1217;-83
2021/10/13 03:39:07;;;;;;;;;;;;;;;;;;2109654;28;1293;-85
2021/10/13 03:40:08;;;;;;;;;;;;;;;;;;2101481;28;1178;-83
2021/10/13 03:41:10;;;;;;;;;;;;;;;;;;2100412;28;1296;-83
2021/10/13 03:42:11;;;;;;;;;;;;;;;;;;2108665;28;1301;-83
2021/10/13 03:43:13;;;;;;;;;;;;;;;;;;2116949;28;1332;-83
2021/10/13 03:44:13;;;;;;;;;;;;;;;;;;2109495;28;1320;-83
2021/10/13 03:45:17;;;;;;;;;;;;;;;;;;2100924;28;1415;-83
2021/10/13 03:46:18;;;;;;;;;;;;;;;;;;2101341;28;903;-83
2021/10/13 03:47:20;;;;;;;;;;;;;;;;;;2109001;28;2351;-83
2021/10/13 03:48:21;;;;;;;;;;;;;;;;;;2100451;28;1285;-83
2021/10/13 03:49:24;;;;;;;;;;;;;;;;;;2100217;28;1450;-83
2021/10/13 03:50:25;;;;;;;;;;;;;;;;;;2101222;28;1365;-83
2021/10/13 03:51:26;;;;;;;;;;;;;;;;;;2100876;28;1325;-83
2021/10/13 03:52:27;;;;;;;;;;;;;;;;;;2100649;28;1292;-83
2021/10/13 03:53:29;;;;;;;;;;;;;;;;;;2109707;28;1206;-83
2021/10/13 03:54:30;;;;;;;;;;;;;;;;;;2115012;28;1552;-83
2021/10/13 03:55:32;;;;;;;;;;;;;;;;;;2116794;28;1898;-84
2021/10/13 03:56:33;;;;;;;;;;;;;;;;;;2100895;28;1285;-83
2021/10/13 03:57:34;;;;;;;;;;;;;;;;;;2100971;28;1217;-82
2021/10/13 03:58:35;;;;;;;;;;;;;;;;;;2100249;28;1204;-83
2021/10/13 03:59:37;;;;;;;;;;;;;;;;;;2109072;28;1326;-83
2021/10/13 04:00:38;;;;;;;;;;;;;;;;;;2116212;28;1448;-83
2021/10/13 04:01:40;;;;;;;;;;;;;;;;;;2109053;28;1446;-83
2021/10/13 04:02:41;;;;;;;;;;;;;;;;;;2092165;28;1284;-83
2021/10/13 04:03:43;;;;;;;;;;;;;;;;;;2100281;28;1265;-84
2021/10/13 04:04:45;;;;;;;;;;;;;;;;;;2108762;28;1525;-83
2021/10/13 04:05:47;;;;;;;;;;;;;;;;;;2109090;28;1371;-83
2021/10/13 04:06:48;;;;;;;;;;;;;;;;;;2092664;28;1180;-83
2021/10/13 04:07:50;;;;;;;;;;;;;;;;;;2107727;28;2166;-83
2021/10/13 04:08:51;;;;;;;;;;;;;;;;;;2108567;28;1216;-83
2021/10/13 04:09:53;;;;;;;;;;;;;;;;;;2109102;28;1253;-83
2021/10/13 04:10:53;;;;;;;;;;;;;;;;;;2104363;28;1839;-83
2021/10/13 04:11:56;;;;;;;;;;;;;;;;;;2100603;28;1347;-83
2021/10/13 04:12:56;;;;;;;;;;;;;;;;;;2100378;28;1214;-83
2021/10/13 04:13:58;;;;;;;;;;;;;;;;;;2102326;28;1434;-84
2021/10/13 04:14:59;;;;;;;;;;;;;;;;;;2108380;28;1330;-82
2021/10/13 04:16:01;;;;;;;;;;;;;;;;;;2100818;28;1470;-84
2021/10/13 04:17:02;;;;;;;;;;;;;;;;;;2100125;28;1415;-84
2021/10/13 04:18:05;;;;;;;;;;;;;;;;;;2103173;28;1345;-83
2021/10/13 04:19:05;;;;;;;;;;;;;;;;;;2100510;28;1414;-83
2021/10/13 04:20:11;;;;;;;;;;;;;;;;;;2101258;28;1352;-82
2021/10/13 04:21:12;;;;;;;;;;;;;;;;;;2101167;28;1215;-83
2021/10/13 04:22:14;;;;;;;;;;;;;;;;;;2101676;28;1298;-83
2021/10/13 04:23:15;;;;;;;;;;;;;;;;;;2104962;28;1484;-83
2021/10/13 04:24:16;;;;;;;;;;;;;;;;;;2102840;28;1419;-83
2021/10/13 04:25:18;;;;;;;;;;;;;;;;;;2100953;28;2008;-87
2021/10/13 04:26:20;;;;;;;;;;;;;;;;;;2108947;28;1423;-85
2021/10/13 04:27:21;;;;;;;;;;;;;;;;;;2108625;28;2038;-84
2021/10/13 04:28:23;;;;;;;;;;;;;;;;;;2109196;28;913;-84
2021/10/13 04:29:24;;;;;;;;;;;;;;;;;;2114780;28;1337;-85
2021/10/13 04:30:26;;;;;;;;;;;;;;;;;;2100621;28;1823;-84
2021/10/13 04:31:28;;;;;;;;;;;;;;;;;;2100671;28;1481;-85
2021/10/13 04:32:29;;;;;;;;;;;;;;;;;;2111223;28;1349;-84
2021/10/13 04:33:31;;;;;;;;;;;;;;;;;;2116574;28;1441;-84
2021/10/13 04:34:31;;;;;;;;;;;;;;;;;;2117113;28;1438;-84
2021/10/13 04:35:35;;;;;;;;;;;;;;;;;;2103377;28;1689;-83
2021/10/13 04:36:35;;;;;;;;;;;;;;;;;;2117390;28;1407;-84
2021/10/13 04:37:37;;;;;;;;;;;;;;;;;;2103170;28;1340;-83
2021/10/13 04:38:38;;;;;;;;;;;;;;;;;;2113812;28;1341;-87
2021/10/13 04:39:40;;;;;;;;;;;;;;;;;;2108972;28;1258;-87
2021/10/13 04:40:40;;;;;;;;;;;;;;;;;;2108901;28;1313;-86
2021/10/13 04:41:43;;;;;;;;;;;;;;;;;;2109138;28;1340;-86
2021/10/13 04:42:43;;;;;;;;;;;;;;;;;;2113350;28;1295;-85
2021/10/13 04:43:45;;;;;;;;;;;;;;;;;;2108908;28;1388;-86
2021/10/13 04:44:46;;;;;;;;;;;;;;;;;;2100524;28;1284;-86
2021/10/13 04:45:48;;;;;;;;;;;;;;;;;;2092802;28;1207;-86
2021/10/13 04:46:49;;;;;;;;;;;;;;;;;;2100733;28;1178;-86
2021/10/13 04:47:51;;;;;;;;;;;;;;;;;;2108814;28;2094;-86
2021/10/13 04:48:52;;;;;;;;;;;;;;;;;;2108414;28;1202;-85
2021/10/13 04:49:53;;;;;;;;;;;;;;;;;;2100583;28;1238;-84
2021/10/13 04:50:56;;;;;;;;;;;;;;;;;;2108825;28;1626;-85
2021/10/13 04:51:57;;;;;;;;;;;;;;;;;;2100655;28;2038;-85
2021/10/13 04:52:58;;;;;;;;;;;;;;;;;;2092168;28;1297;-85
2021/10/13 04:54:00;;;;;;;;;;;;;;;;;;2092536;28;1385;-85
2021/10/13 04:55:01;;;;;;;;;;;;;;;;;;2108870;28;1131;-85
2021/10/13 04:56:03;;;;;;;;;;;;;;;;;;2109044;28;1249;-85
2021/10/13 04:57:03;;;;;;;;;;;;;;;;;;2109628;28;1233;-85
2021/10/13 04:58:05;;;;;;;;;;;;;;;;;;2117989;28;1415;-85
2021/10/13 04:59:06;;;;;;;;;;;;;;;;;;2117070;28;1312;-86
2021/10/13 05:00:08;;;;;;;;;;;;;;;;;;2108557;28;1246;-85
2021/10/13 05:01:10;;;;;;;;;;;;;;;;;;2108431;28;1275;-86
2021/10/13 05:02:11;;;;;;;;;;;;;;;;;;2115451;28;1399;-84
2021/10/13 05:03:13;;;;;;;;;;;;;;;;;;2100479;28;1458;-85
2021/10/13 05:04:13;;;;;;;;;;;;;;;;;;2099985;28;1337;-86
2021/10/13 05:05:16;;;;;;;;;;;;;;;;;;2100823;28;1155;-86
2021/10/13 05:06:18;;;;;;;;;;;;;;;;;;2108502;28;2005;-84
2021/10/13 05:07:20;;;;;;;;;;;;;;;;;;2105529;28;2011;-86
2021/10/13 05:08:21;;;;;;;;;;;;;;;;;;2092654;28;1902;-86
2021/10/13 05:09:23;;;;;;;;;;;;;;;;;;2092547;28;1211;-86
2021/10/13 05:10:23;;;;;;;;;;;;;;;;;;2108834;28;1279;-86
2021/10/13 05:11:25;;;;;;;;;;;;;;;;;;2100681;28;1245;-86
2021/10/13 05:12:26;;;;;;;;;;;;;;;;;;2108629;28;1259;-86
2021/10/13 05:13:28;;;;;;;;;;;;;;;;;;2109139;28;1386;-87
2021/10/13 05:14:29;;;;;;;;;;;;;;;;;;2109042;28;1265;-86
2021/10/13 05:15:30;;;;;;;;;;;;;;;;;;2100393;28;1231;-85
2021/10/13 05:16:31;;;;;;;;;;;;;;;;;;2108982;28;1194;-86
2021/10/13 05:17:34;;;;;;;;;;;;;;;;;;2108450;28;1318;-86
2021/10/13 05:18:34;;;;;;;;;;;;;;;;;;2108956;28;1469;-86
2021/10/13 05:19:36;;;;;;;;;;;;;;;;;;2107499;28;1326;-86
2021/10/13 05:20:37;;;;;;;;;;;;;;;;;;2108330;28;1206;-86
2021/10/13 05:21:40;;;;;;;;;;;;;;;;;;2108468;28;1556;-86
2021/10/13 05:22:41;;;;;;;;;;;;;;;;;;2108868;28;1386;-86
2021/10/13 05:23:43;;;;;;;;;;;;;;;;;;2108470;28;1202;-87
2021/10/13 05:24:44;;;;;;;;;;;;;;;;;;2117188;28;1289;-86
2021/10/13 05:25:46;;;;;;;;;;;;;;;;;;2116833;28;1245;-86
2021/10/13 05:26:46;;;;;;;;;;;;;;;;;;2108848;28;1201;-86
2021/10/13 05:27:48;;;;;;;;;;;;;;;;;;2100614;28;1910;-86
2021/10/13 05:28:49;;;;;;;;;;;;;;;;;;2100118;28;1321;-86
2021/10/13 05:29:51;;;;;;;;;;;;;;;;;;2109088;28;1297;-86
2021/10/13 05:30:52;;;;;;;;;;;;;;;;;;2117177;28;1341;-86
2021/10/13 05:31:54;;;;;;;;;;;;;;;;;;2108585;28;1222;-86
2021/10/13 05:32:56;;;;;;;;;;;;;;;;;;2108391;28;1199;-86
2021/10/13 05:33:57;;;;;;;;;;;;;;;;;;2100539;28;1190;-86
2021/10/13 05:34:59;;;;;;;;;;;;;;;;;;2100202;28;1281;-87
2021/10/13 05:35:59;;;;;;;;;;;;;;;;;;2108294;28;1277;-86
2021/10/13 05:37:02;;;;;;;;;;;;;;;;;;2108082;28;1394;-86
2021/10/13 05:38:03;;;;;;;;;;;;;;;;;;2109047;28;878;-86
2021/10/13 05:39:05;;;;;;;;;;;;;;;;;;2108748;28;1201;-86
2021/10/13 05:40:07;;;;;;;;;;;;;;;;;;2100233;28;1319;-86
2021/10/13 05:41:09;;;;;;;;;;;;;;;;;;2106577;28;2061;-86
2021/10/13 05:42:09;;;;;;;;;;;;;;;;;;2100367;28;2059;-86
2021/10/13 05:43:11;;;;;;;;;;;;;;;;;;2099532;28;1173;-86
2021/10/13 05:44:12;;;;;;;;;;;;;;;;;;2099974;28;1247;-86
2021/10/13 05:45:14;;;;;;;;;;;;;;;;;;2100331;28;1226;-87
2021/10/13 05:46:14;;;;;;;;;;;;;;;;;;2100053;28;1407;-86
2021/10/13 05:47:16;;;;;;;;;;;;;;;;;;2100194;28;2019;-86
2021/10/13 05:48:18;;;;;;;;;;;;;;;;;;2108638;28;1917;-86
2021/10/13 05:49:20;;;;;;;;;;;;;;;;;;2108001;28;1195;-86
2021/10/13 05:50:20;;;;;;;;;;;;;;;;;;2091858;28;1195;-86
2021/10/13 05:51:22;;;;;;;;;;;;;;;;;;2092073;28;1211;-86
2021/10/13 05:52:25;;;;;;;;;;;;;;;;;;2108157;28;1844;-87
2021/10/13 05:53:26;;;;;;;;;;;;;;;;;;2100129;28;1300;-86
2021/10/13 05:54:28;;;;;;;;;;;;;;;;;;2099449;28;1218;-87
2021/10/13 05:55:29;;;;;;;;;;;;;;;;;;2101796;28;1326;-86
2021/10/13 05:56:31;;;;;;;;;;;;;;;;;;2108322;28;1309;-86
2021/10/13 05:57:32;;;;;;;;;;;;;;;;;;2104848;28;1444;-86
2021/10/13 05:58:34;;;;;;;;;;;;;;;;;;2108538;28;1246;-87
2021/10/13 05:59:36;;;;;;;;;;;;;;;;;;2116914;28;1480;-86
2021/10/13 06:00:38;;;;;;;;;;;;;;;;;;2107905;28;1274;-86
2021/10/13 06:01:39;;;;;;;;;;;;;;;;;;2108591;28;1312;-86
2021/10/13 06:02:41;;;;;;;;;;;;;;;;;;2110201;28;1273;-86
2021/10/13 06:03:41;;;;;;;;;;;;;;;;;;2102374;28;1755;-85
2021/10/13 06:04:43;;;;;;;;;;;;;;;;;;2108116;28;1466;-85
2021/10/13 06:05:44;;;;;;;;;;;;;;;;;;2108070;28;1870;-84
2021/10/13 06:06:46;;;;;;;;;;;;;;;;;;2107747;28;1572;-86
2021/10/13 06:07:49;;;;;;;;;;;;;;;;;;2116320;28;1901;-87
2021/10/13 06:08:51;;;;;;;;;;;;;;;;;;2107820;28;1192;-87
2021/10/13 06:09:51;;;;;;;;;;;;;;;;;;2100583;28;1367;-86
2021/10/13 06:10:53;;;;;;;;;;;;;;;;;;2107948;28;1213;-87
2021/10/13 06:11:54;;;;;;;;;;;;;;;;;;2108277;28;1361;-86
2021/10/13 06:12:56;;;;;;;;;;;;;;;;;;2108417;28;1269;-85
2021/10/13 06:13:58;;;;;;;;;;;;;;;;;;2105242;28;1303;-85
2021/10/13 06:15:00;;;;;;;;;;;;;;;;;;2099903;28;1318;-85
2021/10/13 06:16:00;;;;;;;;;;;;;;;;;;2100075;28;1237;-85
2021/10/13 06:17:04;;;;;;;;;;;;;;;;;;2108412;28;2093;-85
2021/10/13 06:18:05;;;;;;;;;;;;;;;;;;2100421;28;1250;-85
2021/10/13 06:19:07;;;;;;;;;;;;;;;;;;2099994;28;1325;-85
2021/10/13 06:20:08;;;;;;;;;;;;;;;;;;2100241;28;1291;-85
2021/10/13 06:21:10;;;;;;;;;;;;;;;;;;2100593;28;1331;-86
2021/10/13 06:22:12;;;;;;;;;;;;;;;;;;2101681;28;2022;-86
2021/10/13 06:23:14;;;;;;;;;;;;;;;;;;2108133;28;1288;-85
2021/10/13 06:24:16;;;;;;;;;;;;;;;;;;2108364;28;1337;-86
2021/10/13 06:25:17;;;;;;;;;;;;;;;;;;2108414;28;1228;-86
2021/10/13 06:26:20;;;;;;;;;;;;;;;;;;2107968;28;1324;-86
2021/10/13 06:27:22;;;;;;;;;;;;;;;;;;2100251;28;1372;-86
2021/10/13 06:28:23;;;;;;;;;;;;;;;;;;2099875;28;1910;-85
2021/10/13 06:29:26;;;;;;;;;;;;;;;;;;2108403;28;1324;-85
2021/10/13 06:30:28;;;;;;;;;;;;;;;;;;2107629;28;1210;-84
2021/10/13 06:31:30;;;;;;;;;;;;;;;;;;2107390;28;1524;-84
2021/10/13 06:32:31;;;;;;;;;;;;;;;;;;2108151;28;1467;-84
2021/10/13 06:33:33;;;;;;;;;;;;;;;;;;2116101;28;1438;-84
2021/10/13 06:34:34;;;;;;;;;;;;;;;;;;2107989;28;1399;-85
2021/10/13 06:35:36;;;;;;;;;;;;;;;;;;2115450;28;1936;-85
2021/10/13 06:36:37;;;;;;;;;;;;;;;;;;2116605;28;1390;-85
2021/10/13 06:37:39;;;;;;;;;;;;;;;;;;2108319;28;1185;-85
2021/10/13 06:38:42;;;;;;;;;;;;;;;;;;2091483;28;1285;-85
2021/10/13 06:39:43;;;;;;;;;;;;;;;;;;2091724;28;1250;-85
2021/10/13 06:40:47;;;;;;;;;;;;;;;;;;2099438;28;1206;-86
2021/10/13 06:41:48;;;;;;;;;;;;;;;;;;2108313;28;1372;-86
2021/10/13 06:42:50;;;;;;;;;;;;;;;;;;2107848;28;1415;-86
2021/10/13 06:43:52;;;;;;;;;;;;;;;;;;2107935;28;1216;-86
2021/10/13 06:44:53;;;;;;;;;;;;;;;;;;2099852;28;1402;-85
2021/10/13 06:45:55;;;;;;;;;;;;;;;;;;2101438;28;1586;-85
2021/10/13 06:46:56;;;;;;;;;;;;;;;;;;2099747;28;2030;-85
2021/10/13 06:47:57;;;;;;;;;;;;;;;;;;2099448;28;1265;-85
2021/10/13 06:48:59;;;;;;;;;;;;;;;;;;2091363;28;1911;-85
2021/10/13 06:50:00;;;;;;;;;;;;;;;;;;2090731;28;1734;-85
2021/10/13 06:51:02;;;;;;;;;;;;;;;;;;2107514;28;1314;-85
2021/10/13 06:52:07;;;;;;;;;;;;;;;;;;2099887;28;1251;-93
2021/10/13 06:53:08;;;;;;;;;;;;;;;;;;2099816;28;1259;-86
2021/10/13 06:54:11;;;;;;;;;;;;;;;;;;2099389;28;1295;-86
2021/10/13 06:55:14;;;;;;;;;;;;;;;;;;2099965;28;1308;-85
2021/10/13 06:56:15;;;;;;;;;;;;;;;;;;2103014;28;1412;-85
2021/10/13 06:57:16;;;;;;;;;;;;;;;;;;2099799;28;1360;-84
2021/10/13 06:58:18;;;;;;;;;;;;;;;;;;2099471;28;1228;-85
2021/10/13 06:59:19;;;;;;;;;;;;;;;;;;2099207;28;1358;-83
2021/10/13 07:00:21;;;;;;;;;;;;;;;;;;2091843;28;1564;-84
2021/10/13 07:01:21;;;;;;;;;;;;;;;;;;2099360;28;1330;-83
2021/10/13 07:02:23;;;;;;;;;;;;;;;;;;2107986;28;1249;-84
2021/10/13 07:03:26;;;;;;;;;;;;;;;;;;2108401;28;1249;-84
2021/10/13 07:04:27;;;;;;;;;;;;;;;;;;2108172;28;1395;-85
2021/10/13 07:05:30;;;;;;;;;;;;;;;;;;2115248;28;1271;-85
2021/10/13 07:06:30;;;;;;;;;;;;;;;;;;2108436;28;1178;-86
2021/10/13 07:07:32;;;;;;;;;;;;;;;;;;2116532;28;1454;-85
2021/10/13 07:08:33;;;;;;;;;;;;;;;;;;2108012;28;1969;-85
2021/10/13 07:09:37;;;;;;;;;;;;;;;;;;2108161;28;1279;-84
2021/10/13 07:10:38;;;;;;;;;;;;;;;;;;2107396;28;1578;-85
2021/10/13 07:11:40;;;;;;;;;;;;;;;;;;2107486;28;1419;-85
2021/10/13 07:12:41;;;;;;;;;;;;;;;;;;2115759;28;1219;-85
2021/10/13 07:13:43;;;;;;;;;;;;;;;;;;2107812;28;1367;-85